createdAt,value
2023-05-16T00:00:25.311Z,9.39
2023-05-16T00:05:21.778Z,9.41
2023-05-16T00:10:18.257Z,9.40
2023-05-16T00:15:15.372Z,9.40
2023-05-16T00:20:17.323Z,9.44
2023-05-16T00:25:13.781Z,9.39
2023-05-16T00:30:10.481Z,9.37
2023-05-16T00:35:07.360Z,9.36
2023-05-16T00:40:03.992Z,9.36
2023-05-16T00:45:00.449Z,9.35
2023-05-16T00:49:56.936Z,9.29
2023-05-16T00:54:53.408Z,9.29
2023-05-16T00:59:50.072Z,9.30
2023-05-16T01:04:48.321Z,9.23
2023-05-16T01:09:44.735Z,9.23
2023-05-16T01:15:20.468Z,9.27
2023-05-16T01:20:37.237Z,9.35
2023-05-16T01:25:45.752Z,9.30
2023-05-16T01:30:42.140Z,9.25
2023-05-16T01:35:54.359Z,9.23
2023-05-16T01:40:59.104Z,9.21
2023-05-16T01:46:02.382Z,9.19
2023-05-16T01:51:01.997Z,9.16
2023-05-16T01:56:01.418Z,9.08
2023-05-16T02:01:05.612Z,8.96
2023-05-16T02:06:01.982Z,8.61
2023-05-16T02:10:58.355Z,8.15
2023-05-16T02:15:54.730Z,7.96
2023-05-16T02:20:51.950Z,7.92
2023-05-16T02:25:48.401Z,7.92
2023-05-16T02:30:44.771Z,7.91
2023-05-16T02:35:41.134Z,7.87
2023-05-16T02:40:37.456Z,7.88
2023-05-16T02:45:33.824Z,7.88
2023-05-16T02:50:30.202Z,7.83
2023-05-16T02:55:26.723Z,7.80
2023-05-16T03:00:23.602Z,7.84
2023-05-16T03:05:19.926Z,7.80
2023-05-16T03:10:16.337Z,7.80
2023-05-16T03:15:12.673Z,7.81
2023-05-16T03:20:11.317Z,7.78
2023-05-16T03:25:07.950Z,7.78
2023-05-16T03:30:05.213Z,7.79
2023-05-16T03:35:01.630Z,7.77
2023-05-16T03:39:58.122Z,7.78
2023-05-16T03:44:54.506Z,7.78
2023-05-16T03:49:50.859Z,7.78
2023-05-16T03:54:47.254Z,7.77
2023-05-16T03:59:44.279Z,7.80
2023-05-16T04:04:40.670Z,7.76
2023-05-16T04:09:37.143Z,7.69
2023-05-16T04:14:35.079Z,7.61
2023-05-16T04:19:31.698Z,7.58
2023-05-16T04:24:29.011Z,7.58
2023-05-16T04:29:25.847Z,7.55
2023-05-16T04:34:23.180Z,7.54
2023-05-16T04:39:20.340Z,7.47
2023-05-16T04:44:16.719Z,7.50
2023-05-16T04:49:13.161Z,7.41
2023-05-16T04:54:10.758Z,7.43
2023-05-16T04:59:07.184Z,7.38
2023-05-16T05:04:03.747Z,7.30
2023-05-16T05:09:00.267Z,7.28
2023-05-16T05:13:56.628Z,7.17
2023-05-16T05:18:53.388Z,7.12
2023-05-16T05:23:49.867Z,7.13
2023-05-16T05:28:53.825Z,7.08
2023-05-16T05:33:58.037Z,7.19
2023-05-16T05:38:54.420Z,7.32
2023-05-16T05:43:51.165Z,7.40
2023-05-16T05:48:47.624Z,7.47
2023-05-16T05:53:44.246Z,7.44
2023-05-16T05:58:41.970Z,7.74
2023-05-16T06:03:38.650Z,7.93
2023-05-16T06:08:35.287Z,8.07
2023-05-16T06:13:31.654Z,8.46
2023-05-16T06:18:28.050Z,8.82
2023-05-16T06:23:24.492Z,9.21
2023-05-16T06:28:20.842Z,8.81
2023-05-16T06:33:18.053Z,8.53
2023-05-16T06:38:15.153Z,8.94
2023-05-16T06:43:12.070Z,8.88
2023-05-16T06:48:08.616Z,9.08
2023-05-16T06:53:07.355Z,8.72
2023-05-16T06:58:03.686Z,8.47
2023-05-16T07:03:00.185Z,8.29
2023-05-16T07:07:57.172Z,8.54
2023-05-16T07:12:53.558Z,8.54
2023-05-16T07:17:51.060Z,8.89
2023-05-16T07:22:47.500Z,8.84
2023-05-16T07:27:45.261Z,8.75
2023-05-16T07:32:42.630Z,9.54
2023-05-16T07:37:41.492Z,9.76
2023-05-16T07:42:38.063Z,10.15
2023-05-16T07:47:34.780Z,10.47
2023-05-16T07:52:31.235Z,9.72
2023-05-16T07:57:27.814Z,9.25
2023-05-16T08:02:30.739Z,9.26
2023-05-16T08:07:27.534Z,9.28
2023-05-16T08:12:24.461Z,10.34
2023-05-16T08:17:21.015Z,10.67
2023-05-16T08:22:17.425Z,9.92
2023-05-16T08:27:13.768Z,9.52
2023-05-16T08:32:11.282Z,9.41
2023-05-16T08:37:08.144Z,10.36
2023-05-16T08:42:05.879Z,10.79
2023-05-16T08:47:18.078Z,10.43
2023-05-16T08:52:19.283Z,10.42
2023-05-16T08:57:17.176Z,10.65
2023-05-16T09:02:13.740Z,10.47
2023-05-16T09:07:10.179Z,10.70
2023-05-16T09:12:07.529Z,11.61
2023-05-16T09:17:12.200Z,11.26
2023-05-16T09:22:11.357Z,11.83
2023-05-16T09:27:09.351Z,11.14
2023-05-16T09:32:17.147Z,10.77
2023-05-16T09:37:13.730Z,11.20
2023-05-16T09:42:13.745Z,12.00
2023-05-16T09:47:10.225Z,11.95
2023-05-16T09:52:06.713Z,10.85
2023-05-16T09:57:03.405Z,10.99
2023-05-16T10:02:01.242Z,11.85
2023-05-16T10:07:03.531Z,11.96
2023-05-16T10:12:06.684Z,11.73
2023-05-16T10:17:13.371Z,11.72
2023-05-16T10:22:11.996Z,11.77
2023-05-16T10:27:09.740Z,12.18
2023-05-16T10:32:08.440Z,12.76
2023-05-16T10:37:05.776Z,12.57
2023-05-16T10:42:02.955Z,12.43
2023-05-16T10:47:01.424Z,13.05
2023-05-16T10:52:11.620Z,12.28
2023-05-16T10:57:16.983Z,12.11
2023-05-16T11:02:22.857Z,11.54
2023-05-16T11:07:21.328Z,11.69
2023-05-16T11:12:20.615Z,11.75
2023-05-16T11:17:24.223Z,13.32
2023-05-16T11:22:23.924Z,12.34
2023-05-16T11:27:29.785Z,12.32
2023-05-16T11:32:26.481Z,11.91
2023-05-16T11:37:22.985Z,11.63
2023-05-16T11:42:19.880Z,13.01
2023-05-16T11:47:16.726Z,13.49
2023-05-16T11:52:13.212Z,13.57
2023-05-16T11:57:09.669Z,12.28
2023-05-16T12:02:06.520Z,11.72
2023-05-16T12:07:03.008Z,11.79
2023-05-16T12:11:59.490Z,12.12
2023-05-16T12:16:56.526Z,12.06
2023-05-16T12:21:54.411Z,12.45
2023-05-16T12:26:53.512Z,13.74
2023-05-16T12:31:53.588Z,12.98
2023-05-16T12:36:53.952Z,13.09
2023-05-16T12:41:50.729Z,13.26
2023-05-16T12:46:50.660Z,13.73
2023-05-16T12:51:59.098Z,14.16
2023-05-16T12:56:55.896Z,14.28
2023-05-16T13:01:52.564Z,14.44
2023-05-16T13:06:59.283Z,12.96
2023-05-16T13:11:56.827Z,12.88
2023-05-16T13:16:53.262Z,13.59
2023-05-16T13:21:49.745Z,14.13
2023-05-16T13:26:46.219Z,13.42
2023-05-16T13:31:42.693Z,14.17
2023-05-16T13:36:53.134Z,13.93
2023-05-16T13:41:54.867Z,12.91
2023-05-16T13:46:51.382Z,12.94
2023-05-16T13:51:48.008Z,12.80
2023-05-16T13:56:45.257Z,12.70
2023-05-16T14:01:41.880Z,12.56
2023-05-16T14:06:38.451Z,12.67
2023-05-16T14:11:34.920Z,13.76
2023-05-16T14:16:31.484Z,13.69
2023-05-16T14:21:27.906Z,13.70
2023-05-16T14:26:25.554Z,13.36
2023-05-16T14:31:22.131Z,13.80
2023-05-16T14:36:18.644Z,13.29
2023-05-16T14:41:15.300Z,13.11
2023-05-16T14:46:12.154Z,12.66
2023-05-16T14:51:08.661Z,12.50
2023-05-16T14:56:05.291Z,12.30
2023-05-16T15:01:01.937Z,12.82
2023-05-16T15:05:58.704Z,13.46
2023-05-16T15:10:55.252Z,13.70
2023-05-16T15:15:51.864Z,12.79
2023-05-16T15:20:48.569Z,12.35
2023-05-16T15:25:45.004Z,12.24
2023-05-16T15:30:41.669Z,12.30
2023-05-16T15:35:38.101Z,12.31
2023-05-16T15:40:34.853Z,12.54
2023-05-16T15:45:32.439Z,12.53
2023-05-16T15:50:29.028Z,12.90
2023-05-16T15:55:25.842Z,12.84
2023-05-16T16:00:23.214Z,13.18
2023-05-16T16:05:19.653Z,13.77
2023-05-16T16:10:16.156Z,12.96
2023-05-16T16:15:12.678Z,13.58
2023-05-16T16:20:09.607Z,13.68
2023-05-16T16:25:06.741Z,14.36
2023-05-16T16:30:03.309Z,13.45
2023-05-16T16:35:01.588Z,12.85
2023-05-16T16:39:57.981Z,12.58
2023-05-16T16:44:54.485Z,12.55
2023-05-16T16:49:51.428Z,12.22
2023-05-16T16:54:47.849Z,12.11
2023-05-16T16:59:46.518Z,12.15
2023-05-16T17:04:43.250Z,12.33
2023-05-16T17:09:42.210Z,12.46
2023-05-16T17:14:38.688Z,13.74
2023-05-16T17:19:35.573Z,12.62
2023-05-16T17:24:32.004Z,11.96
2023-05-16T17:29:28.514Z,11.62
2023-05-16T17:34:24.990Z,11.48
2023-05-16T17:39:21.558Z,11.50
2023-05-16T17:44:18.245Z,11.47
2023-05-16T17:49:14.834Z,11.37
2023-05-16T17:54:12.177Z,11.27
2023-05-16T17:59:10.171Z,11.16
2023-05-16T18:04:07.875Z,10.96
2023-05-16T18:09:10.512Z,10.89
2023-05-16T18:14:13.117Z,10.81
2023-05-16T18:19:09.698Z,10.78
2023-05-16T18:24:08.358Z,10.73
2023-05-16T18:29:05.325Z,10.66
2023-05-16T18:34:01.837Z,10.57
2023-05-16T18:38:58.274Z,10.48
2023-05-16T18:43:54.845Z,10.39
2023-05-16T18:48:51.344Z,10.29
2023-05-16T18:53:47.787Z,10.25
2023-05-16T18:58:44.295Z,10.14
2023-05-16T19:03:40.957Z,10.11
2023-05-16T19:08:47.602Z,10.01
2023-05-16T19:13:45.757Z,9.93
2023-05-16T19:18:42.422Z,9.89
2023-05-16T19:23:39.138Z,9.88
2023-05-16T19:28:35.555Z,9.87
2023-05-16T19:33:31.981Z,9.87
2023-05-16T19:38:28.441Z,9.77
2023-05-16T19:43:24.895Z,9.74
2023-05-16T19:48:21.778Z,9.64
2023-05-16T19:53:18.283Z,9.75
2023-05-16T19:58:15.954Z,9.59
2023-05-16T20:03:12.509Z,9.53
2023-05-16T20:08:09.627Z,9.61
2023-05-16T20:13:06.151Z,9.57
2023-05-16T20:18:02.756Z,9.49
2023-05-16T20:22:59.289Z,9.37
2023-05-16T20:27:55.789Z,9.31
2023-05-16T20:32:52.325Z,9.31
2023-05-16T20:37:49.009Z,9.27
2023-05-16T20:42:45.430Z,9.25
2023-05-16T20:47:41.936Z,9.22
2023-05-16T20:52:38.507Z,9.21
2023-05-16T20:57:34.997Z,9.20
2023-05-16T21:02:31.602Z,9.18
2023-05-16T21:07:28.076Z,9.11
2023-05-16T21:12:24.497Z,9.01
2023-05-16T21:17:21.373Z,8.94
2023-05-16T21:22:18.068Z,8.84
2023-05-16T21:27:14.544Z,8.68
2023-05-16T21:32:15.472Z,8.56
2023-05-16T21:37:12.707Z,8.43
2023-05-16T21:42:09.185Z,8.31
2023-05-16T21:47:06.478Z,8.22
2023-05-16T21:52:04.886Z,8.13
2023-05-16T21:57:03.279Z,8.00
2023-05-16T22:01:59.728Z,7.89
2023-05-16T22:06:56.243Z,7.81
2023-05-16T22:11:52.673Z,7.80
2023-05-16T22:16:49.124Z,7.65
2023-05-16T22:21:45.608Z,7.57
2023-05-16T22:26:42.133Z,7.47
2023-05-16T22:31:38.566Z,7.37
2023-05-16T22:36:35.077Z,7.29
2023-05-16T22:41:31.659Z,7.22
2023-05-16T22:46:28.181Z,7.11
2023-05-16T22:51:24.648Z,7.05
2023-05-16T22:56:21.065Z,6.95
2023-05-16T23:01:17.849Z,6.84
2023-05-16T23:06:14.359Z,6.68
2023-05-16T23:11:10.862Z,6.57
2023-05-16T23:16:07.330Z,6.28
2023-05-16T23:21:03.922Z,6.01
2023-05-16T23:26:00.410Z,6.03
2023-05-16T23:30:56.866Z,5.92
2023-05-16T23:35:53.271Z,5.88
2023-05-16T23:40:49.713Z,5.92
2023-05-16T23:45:46.238Z,5.92
2023-05-16T23:50:42.712Z,5.95
2023-05-16T23:55:39.177Z,5.88
